Weather observations for the past three days for
York, York Municipal Airport
Metric (Imperial)
Date Time (cdt) Wind (kph) Vis. (km) Weather Sky Cond. Temperature (ºC) Relative Humidity Wind Chill (°C) Heat Index (°C) Pressure Precipitation (cm)
Air Dwpt 6 hour altimeter (cm) sea level (mb) 1 hr 3 hr 6 hr
Max. Min.
05 00:55 SE 9 16.09 Fair CLR 25 24 94% 26 76.02 0.0
05 00:35 SE 9 16.09 Fair CLR 25 24 94% 26 76.02 0.0
05 00:15 SE 9 14.48 Fair CLR 25 24 94% 26 76.02 0.0
04 23:55 SE 7 16.09 Fair CLR 26 24 89% 28 76.02 0.0
04 23:35 SE 11 16.09 Fair CLR 27 24 84% 30 76 0.0
04 23:15 SE 13 16.09 Fair CLR 27 24 84% 30 76 0.0
04 22:55 SE 9 16.09 Fair CLR 27 24 84% 30 76 0.0
04 22:35 SE 11 16.09 Fair CLR 27 25 89% 31 76 0.0
04 22:15 SE 13 16.09 Fair CLR 27 25 89% 31 76 0.0
04 21:55 SE 13 16.09 Fair CLR 27 25 89% 31 75.97 0.0
04 21:35 SE 9 16.09 Fair CLR 27 26 94% 31 75.97 0.0
04 21:15 SE 9 16.09 Fair CLR 28 26 89% 34 75.95 0.0
04 20:55 SE 11 11.27 Fair CLR 27 26 94% 31 75.95 0.0
04 20:35 E 9 16.09 Fair CLR 28 26 89% 34 75.92 0.0
04 20:15 SE 9 16.09 Fair CLR 28 26 89% 34 75.92 0.0
04 19:55 SE 9 16.09 Fair CLR 30 26 79% 37 75.92 0.0
04 19:35 SE 6 16.09 Fair CLR 31 26 75% 39 75.92 0.0
04 19:15 SE 9 16.09 Fair CLR 31 26 75% 39 75.9 0.0
04 18:55 SE 9 16.09 Fair CLR 31 26 75% 39 75.9 0.0
04 18:35 S 11 16.09 Fair CLR 32 26 71% 41 75.9 0.0
04 18:15 SE 11 14.48 Fair CLR 32 26 71% 41 75.9 0.0
04 17:55 E 6 16.09 Fair CLR 31 28 84% 42 75.9 0.0
04 17:35 NE 7 16.09 Fair CLR 32 27 75% 42 75.92 0.0
04 17:15 NE 9 16.09 Fair CLR 32 28 79% 44 75.92 0.0
04 16:55 SE 9 16.09 Fair CLR 32 27 75% 42 75.92 0.0
04 16:35 Calm 16.09 Fair CLR 32 26 71% 41 75.95 0.0
04 16:15 S 11 16.09 Fair CLR 32 27 75% 42 75.95 0.0
04 15:55 S 6 16.09 Fair CLR 33 26 67% 42 75.95 0.0
04 15:35 S 9 16.09 Fair CLR 34 26 63% 43 75.95 0.0
04 15:15 S 6 16.09 Fair CLR 34 25 59% 42 75.95 0.0
04 14:55 Vrbl 7 16.09 Fair CLR 35 24 53% 42 75.95 0.0
04 14:35 SW 9 14.48 Fair CLR 35 25 56% 43 75.95 0.0
04 14:15 S 9 16.09 Fair CLR 34 25 59% 42 75.97 0.0
04 13:55 S 11 16.09 Fair CLR 34 25 59% 42 75.97 0.0
04 13:35 Vrbl 9 16.09 Fair CLR 34 25 59% 42 76 0.0
04 13:15 S 11 16.09 Fair CLR 35 25 56% 43 76 0.0
04 12:55 Calm 16.09 Fair CLR 35 25 56% 43 76 0.0
04 12:35 Calm 16.09 Fair CLR 34 24 56% 41 76 0.0
04 12:15 Calm 16.09 Fair CLR 34 25 59% 42 76 0.0
04 11:55 Vrbl 9 16.09 Fair CLR 33 25 63% 41 76 0.0
04 11:35 SW 13 16.09 Fair CLR 33 25 63% 41 76 0.0
04 11:15 W 11 16.09 Fair CLR 32 25 67% 39 76 0.0
04 10:55 SW 15 16.09 Fair CLR 31 25 70% 38 75.97 0.0
04 10:35 W 15 16.09 Fair CLR 30 24 70% 35 75.97 0.0
04 10:15 SW 15 16.09 Fair CLR 30 24 70% 35 75.97 0.0
04 09:55 SW 13 16.09 Fair CLR 29 24 74% 34 75.95 0.0
04 09:35 SW 13 16.09 Fair CLR 28 24 79% 32 75.95 0.0
04 09:15 SW 11 16.09 Fair CLR 27 24 84% 30 75.95 0.0
04 08:55 SW 11 16.09 A Few Clouds FEW110 26 24 89% 28 75.95 0.0
04 08:35 SW 11 16.09 A Few Clouds FEW110 25 24 94% 26 75.92 0.0
04 08:15 SW 9 16.09 A Few Clouds FEW110 24 23 94% 23 75.92 0.0
04 07:55 S 6 16.09 A Few Clouds FEW110 23 23 100% 75.92 0.0
04 07:35 Calm 16.09 A Few Clouds FEW110 22 22 100% 75.92 0.0
04 07:15 S 7 16.09 Fair CLR 22 22 100% 75.9 0.0
04 06:55 S 11 16.09 Fair CLR 22 22 100% 75.87 0.0
04 06:35 S 11 16.09 Fair CLR 22 22 100% 75.87 0.0
04 06:15 S 11 16.09 Fair CLR 22 22 100% 75.87 0.0
04 05:55 S 9 16.09 Fair CLR 22 22 100% 75.87 0.0
04 05:35 S 9 14.48 Fair CLR 22 22 100% 75.87 0.0
04 05:15 S 11 16.09 Fair CLR 23 22 94% 75.87 0.0
04 04:55 S 13 16.09 Fair CLR 23 22 94% 75.84 0.0
04 04:35 S 13 16.09 Fair CLR 23 22 94% 75.84 0.0
04 04:15 SW 9 16.09 Fair CLR 24 22 89% 24 75.84 0.0
04 03:55 S 15 16.09 Fair CLR 24 21 83% 24 75.82 0.0
04 03:35 S 15 16.09 Fair CLR 24 21 83% 24 75.82 0.0
04 03:15 S 19 16.09 Fair CLR 25 21 79% 26 75.79 0.0
04 02:55 S 19 16.09 Fair CLR 25 21 79% 26 75.82 0.0
04 02:35 S 20 16.09 Fair CLR 26 21 74% 27 75.82 0.0
04 02:15 S 17 16.09 Fair CLR 26 21 74% 27 75.82 0.0
04 01:55 S 22 16.09 Fair CLR 26 21 74% 27 75.82 0.0
04 01:35 S 20 16.09 Fair CLR 26 20 70% 27 75.82 0.0
04 01:15 S 19 16.09 Fair CLR 26 20 70% 27 75.82 0.0
04 00:55 S 19 16.09 Fair CLR 26 21 74% 27 75.79 0.0
04 00:35 S 19 16.09 Fair CLR 26 21 74% 27 75.77 0.0
04 00:15 S 20 16.09 Fair CLR 26 21 74% 27 75.77 0.0
03 23:55 S 19 16.09 Fair CLR 27 21 70% 29 75.77 0.0
03 23:35 S 20 16.09 Fair CLR 27 21 70% 29 75.74 0.0
03 23:15 S 19 16.09 Fair CLR 27 21 70% 29 75.77 0.0
03 22:55 S 17 16.09 Fair CLR 27 21 70% 29 75.77 0.0
03 22:35 S 19 16.09 Fair CLR 28 21 66% 30 75.74 0.0
03 22:15 S 17 16.09 Fair CLR 28 21 66% 30 75.74 0.0
03 21:55 S 19 16.09 Fair CLR 29 22 66% 32 75.72 0.0
03 21:35 S 19 16.09 Fair CLR 29 22 66% 32 75.72 0.0
03 21:15 SE 15 16.09 Fair CLR 28 23 74% 31 75.69 0.0
03 20:55 SE 17 16.09 Fair CLR 29 23 70% 33 75.67 0.0
03 20:35 SE 15 16.09 Fair CLR 29 24 74% 34 75.64 0.0
03 20:15 SE 17 16.09 Fair CLR 29 24 74% 34 75.62 0.0
03 19:55 SE 11 16.09 Fair CLR 30 24 70% 35 75.62 0.0
03 19:35 SE 11 16.09 Fair CLR 32 24 63% 38 75.62 0.0
03 19:15 SE 11 16.09 Fair CLR 32 24 63% 38 75.59 0.0
03 18:55 SE 13 G 22 16.09 Fair CLR 34 24 56% 41 75.59 0.0
03 18:35 SE 15 16.09 Fair CLR 34 23 53% 39 75.59 0.0
03 18:15 S 19 16.09 Fair CLR 35 23 50% 41 75.59 0.0
03 17:55 S 17 16.09 Fair CLR 35 24 53% 42 75.59 0.0
03 17:35 S 20 16.09 Fair CLR 35 24 53% 42 75.59 0.0
03 17:15 S 17 16.09 Fair CLR 36 23 47% 42 75.59 0.0
03 16:55 S 19 G 31 16.09 Fair CLR 36 23 47% 42 75.62 0.0
03 16:35 S 28 16.09 Fair CLR 36 23 47% 42 75.62 0.0
03 16:15 S 20 G 33 16.09 Fair CLR 36 23 47% 42 75.62 0.0
03 15:55 S 24 16.09 Fair CLR 36 23 47% 42 75.64 0.0
03 15:35 S 17 G 28 16.09 Fair CLR 35 23 50% 41 75.64 0.0
03 15:15 S 20 16.09 Fair CLR 35 23 50% 41 75.67 0.0
03 14:55 S 24 G 35 16.09 Fair CLR 35 23 50% 41 75.67 0.0
03 14:35 S 24 16.09 Fair CLR 35 23 50% 41 75.67 0.0
03 14:15 S 26 16.09 Fair CLR 35 23 50% 41 75.69 0.0
03 13:55 S 22 0.00 Fair CLR 35 22 47% 39 75.72 0.0 0.13
03 13:35 S 20 0.00 Fair CLR 35 23 50% 41 75.74 0.0
03 13:15 S 20 G 31 0.80 Heavy Rain Haze VV005 34 23 53% 39 75.74 0.0
03 12:55 Calm 16.09 Fair CLR 0 0 0% 75.77 0.0
03 12:35 S 20 16.09 Fair CLR 33 23 56% 38 75.77 0.0
03 12:15 S 26 16.09 Fair CLR 32 22 55% 36 75.77 0.0
03 11:55 S 19 16.09 Fair CLR 32 22 55% 36 75.79 0.0
03 11:35 S 19 G 28 16.09 Fair CLR 31 22 59% 35 75.79 0.0
03 11:15 SW 19 16.09 Fair CLR 31 23 62% 35 75.82 0.0
03 10:55 S 19 16.09 Fair CLR 30 22 62% 33 75.79 0.0
03 10:35 S 15 16.09 Fair CLR 29 22 66% 32 75.82 0.0
03 10:15 S 13 16.09 Fair CLR 29 22 66% 32 75.79 0.0
03 09:55 S 15 16.09 Fair CLR 28 22 70% 31 75.79 0.0
03 09:35 S 15 G 24 16.09 Fair CLR 27 22 74% 29 75.82 0.0
03 09:15 SW 13 16.09 Fair CLR 26 21 74% 27 75.82 0.0
03 08:55 W 15 16.09 Fair CLR 26 21 74% 27 75.84 0.0
03 08:35 W 17 16.09 Fair CLR 25 21 79% 26 75.84 0.0
03 08:15 S 19 16.09 Fair CLR 25 21 79% 26 75.77 0.0
03 07:55 S 17 16.09 Fair CLR 24 20 78% 24 75.77 0.0
03 07:35 S 17 16.09 NULL NULL 23 20 83% 75.77 0.0
03 07:15 S 15 16.09 NULL NULL 23 20 83% 75.77 0.0
03 06:55 S 15 16.09 NULL NULL 23 20 83% 75.77 0.0
03 06:35 S 17 16.09 NULL NULL 24 20 78% 24 75.77 0.0
03 06:15 S 15 16.09 NULL NULL 24 20 78% 24 75.77 0.0
03 05:55 S 17 16.09 NULL NULL 24 20 78% 24 75.77 0.0
03 05:35 S 19 16.09 A Few Clouds FEW027 24 20 78% 24 75.77 0.0
03 05:15 S 22 16.09 A Few Clouds FEW025 FEW029 25 20 74% 26 75.74 0.0
03 04:55 S 19 16.09 A Few Clouds FEW022 FEW028 25 20 74% 26 75.77 0.0
03 04:35 S 17 16.09 NULL NULL 25 20 74% 26 75.77 0.0
03 04:15 S 20 16.09 NULL NULL 25 20 74% 26 75.77 0.0
03 03:55 S 19 G 30 16.09 NULL NULL 25 20 74% 26 75.77 0.0
03 03:35 S 20 16.09 NULL NULL 26 20 70% 27 75.77 0.0
03 03:15 S 22 16.09 NULL NULL 26 19 65% 27 75.77 0.0
03 02:55 S 22 16.09 NULL NULL 26 19 65% 27 75.77 0.0
03 02:35 S 20 16.09 NULL NULL 26 20 70% 27 75.77 0.0
03 02:15 S 20 16.09 NULL NULL 26 20 70% 27 75.79 0.0
03 01:55 S 19 16.09 NULL NULL 26 20 70% 27 75.79 0.0
03 01:35 S 19 16.09 NULL NULL 26 20 70% 27 75.79 0.0
03 01:15 S 17 G 28 16.09 NULL NULL 26 20 70% 27 75.79 0.0
03 00:55 S 19 16.09 NULL NULL 26 20 70% 27 75.79 0.0
03 00:35 S 19 16.09 Fair CLR 26 20 70% 27 75.79 0.0
03 00:15 S 20 16.09 NULL NULL 26 20 70% 27 75.77 0.0
02 23:55 S 19 16.09 NULL NULL 27 20 66% 29 75.79 0.0
02 23:35 S 19 16.09 NULL NULL 27 20 66% 29 75.79 0.0
02 23:15 S 20 G 31 16.09 NULL NULL 27 20 66% 29 75.77 0.0
02 22:55 S 22 G 33 16.09 NULL NULL 28 20 62% 30 75.77 0.0
02 22:35 S 20 G 33 16.09 Fair CLR 28 20 62% 30 75.77 0.0
02 22:15 S 20 16.09 Fair CLR 28 20 62% 30 75.77 0.0
02 21:55 S 19 16.09 NULL NULL 28 20 62% 30 75.77 0.0
02 21:35 S 19 14.48 Light Rain NULL 28 21 66% 30 75.77 0.0
02 21:15 S 22 16.09 NULL NULL 28 21 66% 30 75.74 0.0
02 20:55 SE 19 16.09 NULL NULL 29 21 62% 31 75.72 0.0
02 20:35 SE 19 16.09 NULL NULL 29 22 66% 32 75.72 0.0
02 20:15 SE 17 16.09 Fair CLR 29 22 66% 32 75.69 0.0
02 19:55 SE 15 16.09 Fair CLR 30 22 62% 33 75.69 0.0
02 19:35 SE 15 16.09 Fair CLR 31 22 59% 35 75.69 0.0
02 19:15 SE 15 16.09 Fair CLR 32 23 59% 37 75.69 0.0
02 18:55 SE 15 16.09 Fair CLR 33 23 56% 38 75.69 0.0
02 18:35 SE 13 16.09 Fair CLR 33 23 56% 38 75.69 0.0
02 18:15 SE 13 16.09 Fair CLR 34 23 53% 39 75.72 0.0
02 17:55 SE 13 16.09 Fair CLR 34 23 53% 39 75.72 0.0
02 17:35 S 15 16.09 Fair CLR 35 22 47% 39 75.74 0.0
02 17:15 S 17 16.09 Fair CLR 35 23 50% 41 75.74 0.0
02 16:55 S 17 16.09 Fair CLR 35 22 47% 39 75.77 0.0
02 16:35 S 19 16.09 Fair CLR 35 22 47% 39 75.77 0.0
02 16:15 S 17 16.09 Fair CLR 35 22 47% 39 75.79 0.0
02 15:55 S 17 16.09 Fair CLR 34 23 53% 39 75.82 0.0
02 15:35 S 20 16.09 Fair CLR 34 23 53% 39 75.84 0.0
02 15:15 S 20 16.09 Fair CLR 34 23 53% 39 75.84 0.0
02 14:55 S 19 16.09 Fair CLR 33 22 52% 37 75.87 0.0
02 14:35 S 24 16.09 Fair CLR 33 21 49% 36 75.87 0.0
02 14:15 S 20 16.09 Fair CLR 33 22 52% 37 75.9 0.0
02 13:55 S 19 16.09 Fair CLR 33 22 52% 37 75.9 0.0
02 13:35 S 19 16.09 Fair CLR 32 22 55% 36 75.92 0.0
02 13:15 S 19 16.09 Fair CLR 32 22 55% 36 75.92 0.0
02 12:55 S 20 16.09 Fair CLR 32 22 55% 36 75.92 0.0
02 12:35 S 17 16.09 Fair CLR 31 22 59% 35 75.95 0.0
02 12:15 SW 24 16.09 Fair CLR 31 21 55% 34 75.95 0.0
02 11:55 S 19 16.09 Fair CLR 30 21 59% 33 75.95 0.0
02 11:35 SW 19 16.09 Fair CLR 30 21 59% 33 75.95 0.0
02 11:15 S 17 16.09 Fair CLR 29 21 62% 31 75.95 0.0
02 10:55 SW 19 16.09 Fair CLR 29 21 62% 31 75.95 0.0
02 10:35 S 15 16.09 Fair CLR 27 21 70% 29 75.95 0.0
02 10:15 SW 15 16.09 Fair CLR 26 20 70% 27 75.97 0.0
02 09:55 S 11 16.09 Fair CLR 26 21 74% 27 75.95 0.0
02 09:35 SW 15 16.09 Fair CLR 26 20 70% 27 75.97 0.0
02 09:15 SW 15 16.09 Fair CLR 25 19 69% 26 75.97 0.0
02 08:55 SW 17 16.09 Fair CLR 24 19 74% 25 75.97 0.0
02 08:35 SW 15 16.09 Fair CLR 24 19 74% 25 75.97 0.0
02 08:15 S 13 16.09 Fair CLR 23 19 78% 75.97 0.0
02 07:55 S 11 16.09 A Few Clouds FEW120 22 19 83% 75.97 0.0
02 07:35 S 9 16.09 A Few Clouds FEW120 22 19 83% 75.97 0.0
02 07:15 S 9 16.09 NULL NULL 21 18 83% 75.95 0.0
02 06:55 S 13 16.09 NULL NULL 22 18 78% 75.95 0.0
02 06:35 S 15 16.09 NULL NULL 22 18 78% 75.92 0.0
02 06:15 S 13 16.09 NULL NULL 22 18 78% 75.92 0.0
02 05:55 S 15 16.09 NULL NULL 22 18 78% 75.92 0.0
02 05:35 S 17 16.09 NULL NULL 22 18 78% 75.92 0.0
02 05:15 S 17 16.09 NULL NULL 23 18 74% 75.92 0.0
02 04:55 S 17 16.09 NULL NULL 22 18 78% 75.92 0.0
02 04:35 S 15 16.09 NULL NULL 22 18 78% 75.92 0.0
02 04:15 S 11 16.09 Fair CLR 22 19 83% 75.92 0.0
02 03:55 S 13 16.09 Fair CLR 23 18 74% 75.92 0.0
02 03:35 S 15 16.09 NULL NULL 23 18 74% 75.92 0.0
02 03:15 S 13 16.09 NULL NULL 23 19 78% 75.92 0.0
02 02:55 S 15 16.09 NULL NULL 23 18 74% 75.92 0.0
02 02:35 S 17 16.09 NULL NULL 24 18 69% 25 75.92 0.0
02 02:15 S 15 16.09 NULL NULL 24 18 69% 25 75.95 0.0
02 01:55 S 17 16.09 NULL NULL 24 19 74% 25 75.95 0.0
02 01:35 S 17 16.09 NULL NULL 24 19 74% 25 75.92 0.0
Date Time (cdt) Wind (kph) Vis. (km) Weather Sky Cond. Air Dwpt Max. Min. Relative Humidity Wind Chill (°C) Heat Index (°C) altimeter (cm) sea level (mb) 1 hr 3 hr 6 hr
6 hour
Temperature (ºC) Pressure Precipitation (cm)